Sumifukumaru No.5 — JD3058 — position and weather

sailwx.info

Track history (hours):
 
Tides and Currents Weather Stations Pressure Air Temp Water Temp Dewpoint Dewpoint Depression Visibility Wind Speed Wind Dir Waves Ship Positions

Sumifukumaru No.5

Last reported at 2017-Apr-24 05:44 UTC. Time now 2017-Apr-24 21:09 UTC.
Position N 34°58' E 139°27'.

Length 75 m; draft 4.4 m.

Type: Cargo ship. MMSI: 431001371.

Date/timePositionNaut miles runAvg speedWind from/ knotsBaromVisibWave heightAir tempDewpointWater temp
2017-Apr-24 05:44N 34°58' E 139°27'310.5
2017-Apr-24 05:24N 35°00' E 139°31'410.7
2017-Apr-24 05:00N 35°03' E 139°35'611.7
2017-Apr-24 04:30N 35°06' E 139°41'611.6
2017-Apr-24 04:00N 35°10' E 139°45'510.7
2017-Apr-24 03:30N 35°16' E 139°46'611.1
2017-Apr-24 03:00N 35°20' E 139°42'510.1
2017-Apr-24 02:30N 35°25' E 139°45'4 8.1
2017-Apr-24 01:59N 35°23' E 139°49'2 4.1
2017-Apr-24 01:27N 35°22' E 139°51'0 0.0
2017-Apr-24 01:00N 35°22' E 139°51'0 0.0
2017-Apr-24 00:24N 35°22' E 139°51'0 0.0
2017-Apr-23 23:57N 35°22' E 139°51'0 0.0
2017-Apr-23 23:30N 35°22' E 139°51'0 0.0
2017-Apr-23 22:06N 35°22' E 139°51'0 0.0
2017-Apr-23 22:00N 35°22' E 139°51'0 0.0
2017-Apr-23 21:30N 35°22' E 139°51'0 0.0
2017-Apr-23 21:00N 35°22' E 139°51'0 0.0
2017-Apr-23 20:30N 35°22' E 139°51'0 0.0
2017-Apr-23 19:54N 35°22' E 139°51'0 0.0
2017-Apr-23 19:30N 35°22' E 139°51'0 0.0
2017-Apr-23 19:00N 35°22' E 139°51'0 0.0
2017-Apr-23 18:30N 35°22' E 139°51'0 0.0
2017-Apr-23 18:00N 35°22' E 139°51'0 0.0
2017-Apr-23 17:30N 35°22' E 139°51'0 0.6
2017-Apr-23 17:00N 35°21' E 139°51'0 0.0
2017-Apr-23 16:29N 35°21' E 139°51'0 0.0
2017-Apr-23 15:59N 35°21' E 139°51'0 0.0
2017-Apr-23 15:26N 35°21' E 139°51'0 0.0
2017-Apr-23 14:59N 35°21' E 139°51'0 0.0
2017-Apr-23 13:59N 35°21' E 139°51'0 0.0
2017-Apr-23 13:29N 35°21' E 139°51'0 0.0
2017-Apr-23 12:56N 35°21' E 139°51'0 0.0
2017-Apr-23 12:29N 35°21' E 139°51'0 0.0
2017-Apr-23 11:53N 35°21' E 139°51'0 0.0
2017-Apr-23 11:26N 35°21' E 139°51'0 0.0
2017-Apr-23 10:59N 35°21' E 139°51'0 0.0
2017-Apr-23 10:29N 35°21' E 139°51'0 0.0
2017-Apr-23 09:56N 35°21' E 139°51'0 0.0
2017-Apr-23 09:29N 35°21' E 139°51'0 0.0
2017-Apr-23 08:59N 35°21' E 139°51'0 0.0
2017-Apr-23 08:29N 35°21' E 139°51'0 0.0
2017-Apr-23 07:59N 35°21' E 139°51'0 0.1
2017-Apr-23 07:23N 35°21' E 139°51'0 0.0
2017-Apr-23 06:59N 35°21' E 139°51'0 0.1
2017-Apr-23 06:29N 35°21' E 139°51'1 2.4
2017-Apr-23 05:57N 35°22' E 139°51'2 0.1
2017-Apr-21 21:45N 35°22' E 139°53'0 0.5
2017-Apr-21 21:13N 35°22' E 139°53'0 0.0
2017-Apr-21 20:52N 35°22' E 139°53'0 0.1
2017-Apr-21 20:07N 35°22' E 139°53'0 0.0
2017-Apr-21 19:49N 35°22' E 139°53'0 0.0
2017-Apr-21 19:22N 35°22' E 139°53'1 3.7
2017-Apr-21 19:01N 35°22' E 139°51'612.1
2017-Apr-21 18:31N 35°28' E 139°50'713.3
2017-Apr-21 17:59N 35°34' E 139°56'6 0.5
2017-Apr-21 06:16N 35°40' E 139°57'3 0.1
2017-Apr-20 04:31N 35°37' E 139°58'2 8.1
2017-Apr-20 04:19N 35°35' E 139°57'311.3
2017-Apr-20 04:01N 35°32' E 139°55'611.1
2017-Apr-20 03:31N 35°28' E 139°51'611.1
2017-Apr-20 03:00N 35°24' E 139°46'511.0
2017-Apr-20 02:31N 35°18' E 139°44'510.7
2017-Apr-20 02:00N 35°14' E 139°47'610.9
2017-Apr-20 01:30N 35°08' E 139°46'242 9.3
2017-Apr-18 23:28N 34°05' E 135°03'511.6
2017-Apr-18 23:00N 34°10' E 135°03'812.3
2017-Apr-18 22:19N 34°19' E 135°04'411.6
2017-Apr-18 21:59N 34°22' E 135°07'611.6
2017-Apr-18 21:30N 34°26' E 135°11'611.2
2017-Apr-18 21:00N 34°30' E 135°16'511.0
2017-Apr-18 20:31N 34°34' E 135°20'5 9.3
2017-Apr-18 20:00N 34°35' E 135°26'1 0.1
2017-Apr-18 00:29N 34°34' E 135°27'0 0.1
2017-Apr-17 22:03N 34°35' E 135°27'0 0.3
2017-Apr-17 21:51N 34°35' E 135°27'3 8.0
2017-Apr-17 21:30N 34°36' E 135°24'3 5.8
2017-Apr-17 21:00N 34°38' E 135°27'1 1.0
2017-Apr-17 20:28N 34°38' E 135°27'0 0.0
2017-Apr-17 19:58N 34°38' E 135°27'0 0.0
2017-Apr-17 19:28N 34°38' E 135°27'0 0.0
2017-Apr-17 18:58N 34°38' E 135°27'0 0.0
2017-Apr-17 18:28N 34°38' E 135°27'0 0.0
2017-Apr-17 17:52N 34°38' E 135°27'0 0.0
2017-Apr-17 17:28N 34°38' E 135°27'0 0.0
2017-Apr-17 16:52N 34°38' E 135°27'0 0.0
2017-Apr-17 16:28N 34°38' E 135°27'0 0.0
2017-Apr-17 15:58N 34°38' E 135°27'0 0.0
2017-Apr-17 15:28N 34°38' E 135°27'0 0.0
2017-Apr-17 14:58N 34°38' E 135°27'0 0.0
2017-Apr-17 13:58N 34°38' E 135°27'0 0.0
2017-Apr-17 12:29N 34°38' E 135°27'0 0.6
2017-Apr-17 11:58N 34°38' E 135°27'0 0.0
2017-Apr-17 11:30N 34°38' E 135°27'0 0.1
2017-Apr-17 11:00N 34°38' E 135°27'2 4.8
2017-Apr-17 10:31N 34°39' E 135°24'611.1
2017-Apr-17 10:00N 34°34' E 135°20'611.7
2017-Apr-17 09:30N 34°30' E 135°15'611.3
2017-Apr-17 08:58N 34°25' E 135°10'811.2
2017-Apr-17 08:15N 34°19' E 135°04'410.0
2017-Apr-17 07:51N 34°15' E 135°03'411.4
2017-Apr-17 07:29N 34°11' E 135°03'216 8.9
2017-Apr-16 07:11N 34°56' E 139°20'210.1
2017-Apr-16 07:00N 34°57' E 139°22'5 9.9
2017-Apr-16 06:30N 34°59' E 139°27'510.1
2017-Apr-16 06:00N 35°02' E 139°32'510.5
2017-Apr-16 05:30N 35°05' E 139°37'510.4
2017-Apr-16 05:00N 35°07' E 139°43'611.1
2017-Apr-16 04:30N 35°12' E 139°46'510.8
2017-Apr-16 04:01N 35°17' E 139°44'611.1
2017-Apr-16 03:31N 35°23' E 139°42'510.2
2017-Apr-16 03:00N 35°25' E 139°47'6 1.1
2017-Apr-15 21:26N 35°22' E 139°53'0 0.0
2017-Apr-15 12:22N 35°22' E 139°53'0 0.1
2017-Apr-15 04:51N 35°22' E 139°53'  
Track history (hours):
 
Tides and Currents Weather Stations Pressure Air Temp Water Temp Dewpoint Dewpoint Depression Visibility Wind Speed Wind Dir Waves Ship Positions

Sumifukumaru No.5

Last reported at 2017-Apr-24 05:44 UTC. Time now 2017-Apr-24 21:09 UTC.
Position N 34°58' E 139°27'.

Length 75 m; draft 4.4 m.

Type: Cargo ship. MMSI: 431001371.

Date/timePositionNaut miles runAvg speedWind from/ knotsBaromVisibWave heightAir tempDewpointWater temp
2017-Apr-24 05:44N 34°58' E 139°27'310.5
2017-Apr-24 05:24N 35°00' E 139°31'410.7
2017-Apr-24 05:00N 35°03' E 139°35'611.7
2017-Apr-24 04:30N 35°06' E 139°41'611.6
2017-Apr-24 04:00N 35°10' E 139°45'510.7
2017-Apr-24 03:30N 35°16' E 139°46'611.1
2017-Apr-24 03:00N 35°20' E 139°42'510.1
2017-Apr-24 02:30N 35°25' E 139°45'4 8.1
2017-Apr-24 01:59N 35°23' E 139°49'2 4.1
2017-Apr-24 01:27N 35°22' E 139°51'0 0.0
2017-Apr-24 01:00N 35°22' E 139°51'0 0.0
2017-Apr-24 00:24N 35°22' E 139°51'0 0.0
2017-Apr-23 23:57N 35°22' E 139°51'0 0.0
2017-Apr-23 23:30N 35°22' E 139°51'0 0.0
2017-Apr-23 22:06N 35°22' E 139°51'0 0.0
2017-Apr-23 22:00N 35°22' E 139°51'0 0.0
2017-Apr-23 21:30N 35°22' E 139°51'0 0.0
2017-Apr-23 21:00N 35°22' E 139°51'0 0.0
2017-Apr-23 20:30N 35°22' E 139°51'0 0.0
2017-Apr-23 19:54N 35°22' E 139°51'0 0.0
2017-Apr-23 19:30N 35°22' E 139°51'0 0.0
2017-Apr-23 19:00N 35°22' E 139°51'0 0.0
2017-Apr-23 18:30N 35°22' E 139°51'0 0.0
2017-Apr-23 18:00N 35°22' E 139°51'0 0.0
2017-Apr-23 17:30N 35°22' E 139°51'0 0.6
2017-Apr-23 17:00N 35°21' E 139°51'0 0.0
2017-Apr-23 16:29N 35°21' E 139°51'0 0.0
2017-Apr-23 15:59N 35°21' E 139°51'0 0.0
2017-Apr-23 15:26N 35°21' E 139°51'0 0.0
2017-Apr-23 14:59N 35°21' E 139°51'0 0.0
2017-Apr-23 13:59N 35°21' E 139°51'0 0.0
2017-Apr-23 13:29N 35°21' E 139°51'0 0.0
2017-Apr-23 12:56N 35°21' E 139°51'0 0.0
2017-Apr-23 12:29N 35°21' E 139°51'0 0.0
2017-Apr-23 11:53N 35°21' E 139°51'0 0.0
2017-Apr-23 11:26N 35°21' E 139°51'0 0.0
2017-Apr-23 10:59N 35°21' E 139°51'0 0.0
2017-Apr-23 10:29N 35°21' E 139°51'0 0.0
2017-Apr-23 09:56N 35°21' E 139°51'0 0.0
2017-Apr-23 09:29N 35°21' E 139°51'0 0.0
2017-Apr-23 08:59N 35°21' E 139°51'0 0.0
2017-Apr-23 08:29N 35°21' E 139°51'0 0.0
2017-Apr-23 07:59N 35°21' E 139°51'0 0.1
2017-Apr-23 07:23N 35°21' E 139°51'0 0.0
2017-Apr-23 06:59N 35°21' E 139°51'0 0.1
2017-Apr-23 06:29N 35°21' E 139°51'1 2.4
2017-Apr-23 05:57N 35°22' E 139°51'2 0.1
2017-Apr-21 21:45N 35°22' E 139°53'0 0.5
2017-Apr-21 21:13N 35°22' E 139°53'0 0.0
2017-Apr-21 20:52N 35°22' E 139°53'0 0.1
2017-Apr-21 20:07N 35°22' E 139°53'0 0.0
2017-Apr-21 19:49N 35°22' E 139°53'0 0.0
2017-Apr-21 19:22N 35°22' E 139°53'1 3.7
2017-Apr-21 19:01N 35°22' E 139°51'612.1
2017-Apr-21 18:31N 35°28' E 139°50'713.3
2017-Apr-21 17:59N 35°34' E 139°56'6 0.5
2017-Apr-21 06:16N 35°40' E 139°57'3 0.1
2017-Apr-20 04:31N 35°37' E 139°58'2 8.1
2017-Apr-20 04:19N 35°35' E 139°57'311.3
2017-Apr-20 04:01N 35°32' E 139°55'611.1
2017-Apr-20 03:31N 35°28' E 139°51'611.1
2017-Apr-20 03:00N 35°24' E 139°46'511.0
2017-Apr-20 02:31N 35°18' E 139°44'510.7
2017-Apr-20 02:00N 35°14' E 139°47'610.9
2017-Apr-20 01:30N 35°08' E 139°46'242 9.3
2017-Apr-18 23:28N 34°05' E 135°03'511.6
2017-Apr-18 23:00N 34°10' E 135°03'812.3
2017-Apr-18 22:19N 34°19' E 135°04'411.6
2017-Apr-18 21:59N 34°22' E 135°07'611.6
2017-Apr-18 21:30N 34°26' E 135°11'611.2
2017-Apr-18 21:00N 34°30' E 135°16'511.0
2017-Apr-18 20:31N 34°34' E 135°20'5 9.3
2017-Apr-18 20:00N 34°35' E 135°26'1 0.1
2017-Apr-18 00:29N 34°34' E 135°27'0 0.1
2017-Apr-17 22:03N 34°35' E 135°27'0 0.3
2017-Apr-17 21:51N 34°35' E 135°27'3 8.0
2017-Apr-17 21:30N 34°36' E 135°24'3 5.8
2017-Apr-17 21:00N 34°38' E 135°27'1 1.0
2017-Apr-17 20:28N 34°38' E 135°27'0 0.0
2017-Apr-17 19:58N 34°38' E 135°27'0 0.0
2017-Apr-17 19:28N 34°38' E 135°27'0 0.0
2017-Apr-17 18:58N 34°38' E 135°27'0 0.0
2017-Apr-17 18:28N 34°38' E 135°27'0 0.0
2017-Apr-17 17:52N 34°38' E 135°27'0 0.0
2017-Apr-17 17:28N 34°38' E 135°27'0 0.0
2017-Apr-17 16:52N 34°38' E 135°27'0 0.0
2017-Apr-17 16:28N 34°38' E 135°27'0 0.0
2017-Apr-17 15:58N 34°38' E 135°27'0 0.0
2017-Apr-17 15:28N 34°38' E 135°27'0 0.0
2017-Apr-17 14:58N 34°38' E 135°27'0 0.0
2017-Apr-17 13:58N 34°38' E 135°27'0 0.0
2017-Apr-17 12:29N 34°38' E 135°27'0 0.6
2017-Apr-17 11:58N 34°38' E 135°27'0 0.0
2017-Apr-17 11:30N 34°38' E 135°27'0 0.1
2017-Apr-17 11:00N 34°38' E 135°27'2 4.8
2017-Apr-17 10:31N 34°39' E 135°24'611.1
2017-Apr-17 10:00N 34°34' E 135°20'611.7
2017-Apr-17 09:30N 34°30' E 135°15'611.3
2017-Apr-17 08:58N 34°25' E 135°10'811.2
2017-Apr-17 08:15N 34°19' E 135°04'410.0
2017-Apr-17 07:51N 34°15' E 135°03'411.4
2017-Apr-17 07:29N 34°11' E 135°03'216 8.9
2017-Apr-16 07:11N 34°56' E 139°20'210.1
2017-Apr-16 07:00N 34°57' E 139°22'5 9.9
2017-Apr-16 06:30N 34°59' E 139°27'510.1
2017-Apr-16 06:00N 35°02' E 139°32'510.5
2017-Apr-16 05:30N 35°05' E 139°37'510.4
2017-Apr-16 05:00N 35°07' E 139°43'611.1
2017-Apr-16 04:30N 35°12' E 139°46'510.8
2017-Apr-16 04:01N 35°17' E 139°44'611.1
2017-Apr-16 03:31N 35°23' E 139°42'510.2
2017-Apr-16 03:00N 35°25' E 139°47'6 1.1
2017-Apr-15 21:26N 35°22' E 139°53'0 0.0
2017-Apr-15 12:22N 35°22' E 139°53'0 0.1
2017-Apr-15 04:51N 35°22' E 139°53'  

Dump ship's entire track history